sensor_id;sensor_type;location;lat;lon;timestamp;P1;durP1;ratioP1;P2;durP2;ratioP2
20826;SDS011;10574;52.508;13.236;2023-10-31T00:01:32;1.17;;;0.77;;
20826;SDS011;10574;52.508;13.236;2023-10-31T00:04:00;0.70;;;0.70;;
20826;SDS011;10574;52.508;13.236;2023-10-31T00:06:27;1.70;;;1.23;;
20826;SDS011;10574;52.508;13.236;2023-10-31T00:08:55;0.60;;;0.60;;
20826;SDS011;10574;52.508;13.236;2023-10-31T00:11:23;1.20;;;1.10;;
20826;SDS011;10574;52.508;13.236;2023-10-31T00:13:50;0.47;;;0.47;;
20826;SDS011;10574;52.508;13.236;2023-10-31T00:16:18;0.30;;;0.30;;
20826;SDS011;10574;52.508;13.236;2023-10-31T00:18:46;1.50;;;0.87;;
20826;SDS011;10574;52.508;13.236;2023-10-31T00:21:13;0.53;;;0.53;;
20826;SDS011;10574;52.508;13.236;2023-10-31T00:23:44;0.73;;;0.73;;
20826;SDS011;10574;52.508;13.236;2023-10-31T00:26:13;1.07;;;0.60;;
20826;SDS011;10574;52.508;13.236;2023-10-31T00:28:41;0.57;;;0.57;;
20826;SDS011;10574;52.508;13.236;2023-10-31T00:31:09;0.33;;;0.33;;
20826;SDS011;10574;52.508;13.236;2023-10-31T00:33:37;0.70;;;0.60;;
20826;SDS011;10574;52.508;13.236;2023-10-31T00:36:05;10.63;;;1.10;;
20826;SDS011;10574;52.508;13.236;2023-10-31T00:38:33;3.13;;;1.50;;
20826;SDS011;10574;52.508;13.236;2023-10-31T00:41:01;1.10;;;0.60;;
20826;SDS011;10574;52.508;13.236;2023-10-31T00:43:29;4.70;;;0.80;;
20826;SDS011;10574;52.508;13.236;2023-10-31T00:45:56;6.30;;;1.43;;
20826;SDS011;10574;52.508;13.236;2023-10-31T00:48:24;1.10;;;0.70;;
20826;SDS011;10574;52.508;13.236;2023-10-31T00:50:52;0.50;;;0.47;;
20826;SDS011;10574;52.508;13.236;2023-10-31T00:53:19;2.73;;;0.67;;
20826;SDS011;10574;52.508;13.236;2023-10-31T00:55:47;1.00;;;0.63;;
20826;SDS011;10574;52.508;13.236;2023-10-31T00:58:15;2.00;;;1.07;;
20826;SDS011;10574;52.508;13.236;2023-10-31T01:00:42;0.63;;;0.60;;
20826;SDS011;10574;52.508;13.236;2023-10-31T01:03:10;0.77;;;0.50;;
20826;SDS011;10574;52.508;13.236;2023-10-31T01:05:38;0.87;;;0.80;;
20826;SDS011;10574;52.508;13.236;2023-10-31T01:08:05;1.07;;;0.70;;
20826;SDS011;10574;52.508;13.236;2023-10-31T01:10:33;1.93;;;0.93;;
20826;SDS011;10574;52.508;13.236;2023-10-31T01:13:00;4.07;;;0.87;;
20826;SDS011;10574;52.508;13.236;2023-10-31T01:15:28;2.33;;;1.33;;
20826;SDS011;10574;52.508;13.236;2023-10-31T01:17:56;8.70;;;1.43;;
20826;SDS011;10574;52.508;13.236;2023-10-31T01:20:23;2.20;;;0.87;;
20826;SDS011;10574;52.508;13.236;2023-10-31T01:22:51;3.20;;;1.17;;
20826;SDS011;10574;52.508;13.236;2023-10-31T01:25:19;2.87;;;1.43;;
20826;SDS011;10574;52.508;13.236;2023-10-31T01:27:47;0.80;;;0.80;;
20826;SDS011;10574;52.508;13.236;2023-10-31T01:30:14;0.97;;;0.90;;
20826;SDS011;10574;52.508;13.236;2023-10-31T01:32:42;0.80;;;0.80;;
20826;SDS011;10574;52.508;13.236;2023-10-31T01:35:09;0.90;;;0.90;;
20826;SDS011;10574;52.508;13.236;2023-10-31T01:37:37;2.60;;;1.07;;
20826;SDS011;10574;52.508;13.236;2023-10-31T01:40:05;0.67;;;0.40;;
20826;SDS011;10574;52.508;13.236;2023-10-31T01:42:34;1.67;;;0.77;;
20826;SDS011;10574;52.508;13.236;2023-10-31T01:45:01;2.10;;;0.70;;
20826;SDS011;10574;52.508;13.236;2023-10-31T01:47:29;1.17;;;1.17;;
20826;SDS011;10574;52.508;13.236;2023-10-31T01:49:57;0.20;;;0.20;;
20826;SDS011;10574;52.508;13.236;2023-10-31T01:52:25;1.40;;;0.70;;
20826;SDS011;10574;52.508;13.236;2023-10-31T01:54:53;0.40;;;0.40;;
20826;SDS011;10574;52.508;13.236;2023-10-31T01:57:21;2.50;;;1.10;;
20826;SDS011;10574;52.508;13.236;2023-10-31T01:59:50;2.10;;;1.10;;
20826;SDS011;10574;52.508;13.236;2023-10-31T02:02:17;3.70;;;1.07;;
20826;SDS011;10574;52.508;13.236;2023-10-31T02:04:48;0.77;;;0.50;;
20826;SDS011;10574;52.508;13.236;2023-10-31T02:07:17;5.30;;;1.03;;
20826;SDS011;10574;52.508;13.236;2023-10-31T02:09:44;0.37;;;0.37;;
20826;SDS011;10574;52.508;13.236;2023-10-31T02:12:30;4.33;;;0.60;;
20826;SDS011;10574;52.508;13.236;2023-10-31T02:14:59;3.13;;;1.00;;
20826;SDS011;10574;52.508;13.236;2023-10-31T02:17:27;0.40;;;0.40;;
20826;SDS011;10574;52.508;13.236;2023-10-31T02:19:55;5.20;;;1.10;;
20826;SDS011;10574;52.508;13.236;2023-10-31T02:22:23;1.90;;;0.73;;
20826;SDS011;10574;52.508;13.236;2023-10-31T02:24:50;0.40;;;0.40;;
20826;SDS011;10574;52.508;13.236;2023-10-31T02:27:18;1.33;;;0.43;;
20826;SDS011;10574;52.508;13.236;2023-10-31T02:29:46;1.17;;;0.93;;
20826;SDS011;10574;52.508;13.236;2023-10-31T02:32:14;2.20;;;0.83;;
20826;SDS011;10574;52.508;13.236;2023-10-31T02:34:41;0.30;;;0.30;;
20826;SDS011;10574;52.508;13.236;2023-10-31T02:37:11;0.67;;;0.53;;
20826;SDS011;10574;52.508;13.236;2023-10-31T02:39:38;1.60;;;1.03;;
20826;SDS011;10574;52.508;13.236;2023-10-31T02:42:06;0.50;;;0.50;;
20826;SDS011;10574;52.508;13.236;2023-10-31T02:44:34;1.60;;;1.07;;
20826;SDS011;10574;52.508;13.236;2023-10-31T02:47:01;1.33;;;0.60;;
20826;SDS011;10574;52.508;13.236;2023-10-31T02:49:29;0.93;;;0.93;;
20826;SDS011;10574;52.508;13.236;2023-10-31T02:51:57;0.37;;;0.37;;
20826;SDS011;10574;52.508;13.236;2023-10-31T02:54:24;0.57;;;0.37;;
20826;SDS011;10574;52.508;13.236;2023-10-31T02:56:52;0.33;;;0.33;;
20826;SDS011;10574;52.508;13.236;2023-10-31T02:59:20;0.23;;;0.23;;
20826;SDS011;10574;52.508;13.236;2023-10-31T03:01:47;3.40;;;0.93;;
20826;SDS011;10574;52.508;13.236;2023-10-31T03:04:15;0.67;;;0.63;;
20826;SDS011;10574;52.508;13.236;2023-10-31T03:06:43;0.97;;;0.97;;
20826;SDS011;10574;52.508;13.236;2023-10-31T03:09:10;0.90;;;0.63;;
20826;SDS011;10574;52.508;13.236;2023-10-31T03:11:38;8.40;;;1.07;;
20826;SDS011;10574;52.508;13.236;2023-10-31T03:14:06;7.63;;;0.93;;
20826;SDS011;10574;52.508;13.236;2023-10-31T03:16:33;0.40;;;0.40;;
20826;SDS011;10574;52.508;13.236;2023-10-31T03:19:01;4.43;;;1.27;;
20826;SDS011;10574;52.508;13.236;2023-10-31T03:21:29;2.07;;;1.20;;
20826;SDS011;10574;52.508;13.236;2023-10-31T03:23:56;0.67;;;0.43;;
20826;SDS011;10574;52.508;13.236;2023-10-31T03:26:24;0.53;;;0.50;;
20826;SDS011;10574;52.508;13.236;2023-10-31T03:28:52;5.20;;;1.40;;
20826;SDS011;10574;52.508;13.236;2023-10-31T03:31:21;2.17;;;1.00;;
20826;SDS011;10574;52.508;13.236;2023-10-31T03:33:49;1.90;;;1.33;;
20826;SDS011;10574;52.508;13.236;2023-10-31T03:36:17;1.17;;;1.07;;
20826;SDS011;10574;52.508;13.236;2023-10-31T03:38:45;1.60;;;1.03;;
20826;SDS011;10574;52.508;13.236;2023-10-31T03:41:13;0.30;;;0.30;;
20826;SDS011;10574;52.508;13.236;2023-10-31T03:43:41;2.53;;;2.03;;
20826;SDS011;10574;52.508;13.236;2023-10-31T03:46:09;1.13;;;0.57;;
20826;SDS011;10574;52.508;13.236;2023-10-31T03:48:38;1.07;;;0.97;;
20826;SDS011;10574;52.508;13.236;2023-10-31T03:51:05;1.53;;;1.00;;
20826;SDS011;10574;52.508;13.236;2023-10-31T03:53:33;2.10;;;1.07;;
20826;SDS011;10574;52.508;13.236;2023-10-31T03:56:01;1.13;;;1.03;;
20826;SDS011;10574;52.508;13.236;2023-10-31T03:58:28;10.33;;;1.70;;
20826;SDS011;10574;52.508;13.236;2023-10-31T04:00:56;11.93;;;1.50;;
20826;SDS011;10574;52.508;13.236;2023-10-31T04:03:24;4.97;;;1.20;;
20826;SDS011;10574;52.508;13.236;2023-10-31T04:05:51;1.80;;;1.17;;
20826;SDS011;10574;52.508;13.236;2023-10-31T04:08:20;5.80;;;2.27;;
20826;SDS011;10574;52.508;13.236;2023-10-31T04:10:47;0.50;;;0.43;;
20826;SDS011;10574;52.508;13.236;2023-10-31T04:13:15;1.97;;;0.80;;
20826;SDS011;10574;52.508;13.236;2023-10-31T04:15:43;0.60;;;0.60;;
20826;SDS011;10574;52.508;13.236;2023-10-31T04:18:10;2.13;;;1.03;;
20826;SDS011;10574;52.508;13.236;2023-10-31T04:20:38;0.70;;;0.70;;
20826;SDS011;10574;52.508;13.236;2023-10-31T04:23:08;1.33;;;1.07;;
20826;SDS011;10574;52.508;13.236;2023-10-31T04:25:37;8.63;;;1.17;;
20826;SDS011;10574;52.508;13.236;2023-10-31T04:28:05;0.80;;;0.67;;
20826;SDS011;10574;52.508;13.236;2023-10-31T04:30:33;1.77;;;1.27;;
20826;SDS011;10574;52.508;13.236;2023-10-31T04:33:01;3.00;;;1.87;;
20826;SDS011;10574;52.508;13.236;2023-10-31T04:35:28;5.03;;;1.10;;
20826;SDS011;10574;52.508;13.236;2023-10-31T04:37:56;1.43;;;1.33;;
20826;SDS011;10574;52.508;13.236;2023-10-31T04:40:24;1.40;;;1.10;;
20826;SDS011;10574;52.508;13.236;2023-10-31T04:42:51;3.90;;;2.07;;
20826;SDS011;10574;52.508;13.236;2023-10-31T04:45:19;2.43;;;1.40;;
20826;SDS011;10574;52.508;13.236;2023-10-31T04:47:47;1.00;;;0.90;;
20826;SDS011;10574;52.508;13.236;2023-10-31T04:50:14;2.20;;;1.53;;
20826;SDS011;10574;52.508;13.236;2023-10-31T04:52:42;4.30;;;1.37;;
20826;SDS011;10574;52.508;13.236;2023-10-31T04:55:10;1.40;;;1.30;;
20826;SDS011;10574;52.508;13.236;2023-10-31T04:57:37;2.90;;;2.20;;
20826;SDS011;10574;52.508;13.236;2023-10-31T05:00:06;0.97;;;0.97;;
20826;SDS011;10574;52.508;13.236;2023-10-31T05:02:34;3.43;;;2.07;;
20826;SDS011;10574;52.508;13.236;2023-10-31T05:05:02;2.43;;;1.07;;
20826;SDS011;10574;52.508;13.236;2023-10-31T05:07:30;1.70;;;0.60;;
20826;SDS011;10574;52.508;13.236;2023-10-31T05:09:58;5.23;;;1.00;;
20826;SDS011;10574;52.508;13.236;2023-10-31T05:12:26;0.73;;;0.73;;
20826;SDS011;10574;52.508;13.236;2023-10-31T05:14:53;0.57;;;0.57;;
20826;SDS011;10574;52.508;13.236;2023-10-31T05:17:21;1.60;;;0.70;;
20826;SDS011;10574;52.508;13.236;2023-10-31T05:19:49;0.70;;;0.70;;
20826;SDS011;10574;52.508;13.236;2023-10-31T05:22:16;1.20;;;1.00;;
20826;SDS011;10574;52.508;13.236;2023-10-31T05:24:44;1.10;;;1.00;;
20826;SDS011;10574;52.508;13.236;2023-10-31T05:27:12;0.97;;;0.87;;
20826;SDS011;10574;52.508;13.236;2023-10-31T05:29:40;0.80;;;0.80;;
20826;SDS011;10574;52.508;13.236;2023-10-31T05:32:07;0.77;;;0.77;;
20826;SDS011;10574;52.508;13.236;2023-10-31T05:34:35;1.50;;;1.30;;
20826;SDS011;10574;52.508;13.236;2023-10-31T05:37:03;0.67;;;0.43;;
20826;SDS011;10574;52.508;13.236;2023-10-31T05:39:31;0.80;;;0.80;;
20826;SDS011;10574;52.508;13.236;2023-10-31T05:41:59;0.53;;;0.53;;
20826;SDS011;10574;52.508;13.236;2023-10-31T05:44:27;1.97;;;0.80;;
20826;SDS011;10574;52.508;13.236;2023-10-31T05:46:55;1.17;;;0.57;;
20826;SDS011;10574;52.508;13.236;2023-10-31T05:49:23;0.90;;;0.90;;
20826;SDS011;10574;52.508;13.236;2023-10-31T05:51:51;0.87;;;0.77;;
20826;SDS011;10574;52.508;13.236;2023-10-31T05:54:18;0.97;;;0.80;;
20826;SDS011;10574;52.508;13.236;2023-10-31T05:56:46;0.73;;;0.73;;
20826;SDS011;10574;52.508;13.236;2023-10-31T05:59:14;2.53;;;1.20;;
20826;SDS011;10574;52.508;13.236;2023-10-31T06:01:42;1.80;;;1.03;;
20826;SDS011;10574;52.508;13.236;2023-10-31T06:04:09;4.53;;;1.13;;
20826;SDS011;10574;52.508;13.236;2023-10-31T06:06:37;0.67;;;0.67;;
20826;SDS011;10574;52.508;13.236;2023-10-31T06:09:05;0.63;;;0.63;;
20826;SDS011;10574;52.508;13.236;2023-10-31T06:11:33;1.20;;;0.43;;
20826;SDS011;10574;52.508;13.236;2023-10-31T06:14:00;4.73;;;0.60;;
20826;SDS011;10574;52.508;13.236;2023-10-31T06:16:28;2.17;;;1.00;;
20826;SDS011;10574;52.508;13.236;2023-10-31T06:18:56;3.17;;;1.07;;
20826;SDS011;10574;52.508;13.236;2023-10-31T06:21:23;5.07;;;0.93;;
20826;SDS011;10574;52.508;13.236;2023-10-31T06:23:51;0.77;;;0.77;;
20826;SDS011;10574;52.508;13.236;2023-10-31T06:26:18;2.10;;;1.27;;
20826;SDS011;10574;52.508;13.236;2023-10-31T06:28:46;3.37;;;1.53;;
20826;SDS011;10574;52.508;13.236;2023-10-31T06:31:14;2.20;;;1.00;;
20826;SDS011;10574;52.508;13.236;2023-10-31T06:33:41;0.47;;;0.47;;
20826;SDS011;10574;52.508;13.236;2023-10-31T06:36:09;2.90;;;1.10;;
20826;SDS011;10574;52.508;13.236;2023-10-31T06:38:37;1.03;;;0.93;;
20826;SDS011;10574;52.508;13.236;2023-10-31T06:41:04;5.73;;;1.00;;
20826;SDS011;10574;52.508;13.236;2023-10-31T06:43:33;1.20;;;0.97;;
20826;SDS011;10574;52.508;13.236;2023-10-31T06:46:03;0.60;;;0.60;;
20826;SDS011;10574;52.508;13.236;2023-10-31T06:48:32;9.33;;;1.17;;
20826;SDS011;10574;52.508;13.236;2023-10-31T06:51:00;0.97;;;0.60;;
20826;SDS011;10574;52.508;13.236;2023-10-31T06:53:28;0.80;;;0.80;;
20826;SDS011;10574;52.508;13.236;2023-10-31T06:55:55;0.93;;;0.60;;
20826;SDS011;10574;52.508;13.236;2023-10-31T06:58:23;0.97;;;0.60;;
20826;SDS011;10574;52.508;13.236;2023-10-31T07:00:51;0.73;;;0.73;;
20826;SDS011;10574;52.508;13.236;2023-10-31T07:03:18;2.50;;;1.20;;
20826;SDS011;10574;52.508;13.236;2023-10-31T07:05:46;0.87;;;0.50;;
20826;SDS011;10574;52.508;13.236;2023-10-31T07:08:14;0.60;;;0.50;;
20826;SDS011;10574;52.508;13.236;2023-10-31T07:10:41;0.53;;;0.47;;
20826;SDS011;10574;52.508;13.236;2023-10-31T07:13:09;0.20;;;0.20;;
20826;SDS011;10574;52.508;13.236;2023-10-31T07:15:38;0.40;;;0.40;;
20826;SDS011;10574;52.508;13.236;2023-10-31T07:18:06;0.77;;;0.40;;
20826;SDS011;10574;52.508;13.236;2023-10-31T07:20:34;14.63;;;0.67;;
20826;SDS011;10574;52.508;13.236;2023-10-31T07:23:01;2.97;;;0.37;;
20826;SDS011;10574;52.508;13.236;2023-10-31T07:25:29;0.03;;;0.03;;
20826;SDS011;10574;52.508;13.236;2023-10-31T07:27:57;0.47;;;0.47;;
20826;SDS011;10574;52.508;13.236;2023-10-31T07:30:24;11.23;;;0.53;;
20826;SDS011;10574;52.508;13.236;2023-10-31T07:32:52;0.00;;;0.00;;
20826;SDS011;10574;52.508;13.236;2023-10-31T07:35:20;0.13;;;0.13;;
20826;SDS011;10574;52.508;13.236;2023-10-31T07:37:48;0.57;;;0.20;;
20826;SDS011;10574;52.508;13.236;2023-10-31T07:40:15;0.20;;;0.20;;
20826;SDS011;10574;52.508;13.236;2023-10-31T07:42:43;1.17;;;0.53;;
20826;SDS011;10574;52.508;13.236;2023-10-31T07:45:11;0.07;;;0.07;;
20826;SDS011;10574;52.508;13.236;2023-10-31T07:47:38;0.33;;;0.33;;
20826;SDS011;10574;52.508;13.236;2023-10-31T07:50:06;0.10;;;0.10;;
20826;SDS011;10574;52.508;13.236;2023-10-31T07:52:34;0.20;;;0.10;;
20826;SDS011;10574;52.508;13.236;2023-10-31T07:55:02;0.20;;;0.20;;
20826;SDS011;10574;52.508;13.236;2023-10-31T07:57:29;0.13;;;0.13;;
20826;SDS011;10574;52.508;13.236;2023-10-31T07:59:57;0.10;;;0.10;;
20826;SDS011;10574;52.508;13.236;2023-10-31T08:02:25;0.20;;;0.20;;
20826;SDS011;10574;52.508;13.236;2023-10-31T08:04:53;0.20;;;0.17;;
20826;SDS011;10574;52.508;13.236;2023-10-31T08:07:20;0.40;;;0.20;;
20826;SDS011;10574;52.508;13.236;2023-10-31T08:09:49;0.30;;;0.30;;
20826;SDS011;10574;52.508;13.236;2023-10-31T08:12:17;1.97;;;0.57;;
20826;SDS011;10574;52.508;13.236;2023-10-31T08:14:44;0.03;;;0.03;;
20826;SDS011;10574;52.508;13.236;2023-10-31T08:17:12;0.00;;;0.00;;
20826;SDS011;10574;52.508;13.236;2023-10-31T08:19:40;0.10;;;0.10;;
20826;SDS011;10574;52.508;13.236;2023-10-31T08:22:08;0.00;;;0.00;;
20826;SDS011;10574;52.508;13.236;2023-10-31T08:24:35;0.00;;;0.00;;
20826;SDS011;10574;52.508;13.236;2023-10-31T08:27:04;0.03;;;0.03;;
20826;SDS011;10574;52.508;13.236;2023-10-31T08:29:32;0.77;;;0.20;;
20826;SDS011;10574;52.508;13.236;2023-10-31T08:31:59;0.00;;;0.00;;
20826;SDS011;10574;52.508;13.236;2023-10-31T08:34:27;0.00;;;0.00;;
20826;SDS011;10574;52.508;13.236;2023-10-31T08:36:55;0.00;;;0.00;;
20826;SDS011;10574;52.508;13.236;2023-10-31T08:39:24;0.30;;;0.17;;
20826;SDS011;10574;52.508;13.236;2023-10-31T08:41:53;0.00;;;0.00;;
20826;SDS011;10574;52.508;13.236;2023-10-31T08:44:22;0.10;;;0.10;;
20826;SDS011;10574;52.508;13.236;2023-10-31T08:46:50;0.00;;;0.00;;
20826;SDS011;10574;52.508;13.236;2023-10-31T08:49:17;0.10;;;0.10;;
20826;SDS011;10574;52.508;13.236;2023-10-31T08:51:45;0.00;;;0.00;;
20826;SDS011;10574;52.508;13.236;2023-10-31T08:54:13;0.20;;;0.20;;
20826;SDS011;10574;52.508;13.236;2023-10-31T08:56:41;0.00;;;0.00;;
20826;SDS011;10574;52.508;13.236;2023-10-31T08:59:08;0.10;;;0.10;;
20826;SDS011;10574;52.508;13.236;2023-10-31T09:01:36;0.20;;;0.20;;
20826;SDS011;10574;52.508;13.236;2023-10-31T09:04:04;1.27;;;0.93;;
20826;SDS011;10574;52.508;13.236;2023-10-31T09:06:32;0.10;;;0.10;;
20826;SDS011;10574;52.508;13.236;2023-10-31T09:09:00;0.10;;;0.00;;
20826;SDS011;10574;52.508;13.236;2023-10-31T09:11:29;0.67;;;0.50;;
20826;SDS011;10574;52.508;13.236;2023-10-31T09:13:57;0.00;;;0.00;;
20826;SDS011;10574;52.508;13.236;2023-10-31T09:16:24;0.00;;;0.00;;
20826;SDS011;10574;52.508;13.236;2023-10-31T09:18:52;0.00;;;0.00;;
20826;SDS011;10574;52.508;13.236;2023-10-31T09:21:20;0.13;;;0.13;;
20826;SDS011;10574;52.508;13.236;2023-10-31T09:23:47;0.00;;;0.00;;
20826;SDS011;10574;52.508;13.236;2023-10-31T09:26:15;0.00;;;0.00;;
20826;SDS011;10574;52.508;13.236;2023-10-31T09:28:43;0.00;;;0.00;;
20826;SDS011;10574;52.508;13.236;2023-10-31T09:31:13;0.00;;;0.00;;
20826;SDS011;10574;52.508;13.236;2023-10-31T09:33:40;0.23;;;0.10;;
20826;SDS011;10574;52.508;13.236;2023-10-31T09:36:08;0.00;;;0.00;;
20826;SDS011;10574;52.508;13.236;2023-10-31T09:38:36;0.27;;;0.23;;
20826;SDS011;10574;52.508;13.236;2023-10-31T09:41:04;0.00;;;0.00;;
20826;SDS011;10574;52.508;13.236;2023-10-31T09:43:32;0.00;;;0.00;;
20826;SDS011;10574;52.508;13.236;2023-10-31T09:46:00;0.37;;;0.23;;
20826;SDS011;10574;52.508;13.236;2023-10-31T09:48:29;0.00;;;0.00;;
20826;SDS011;10574;52.508;13.236;2023-10-31T09:50:58;23.27;;;0.40;;
20826;SDS011;10574;52.508;13.236;2023-10-31T09:53:26;0.10;;;0.10;;
20826;SDS011;10574;52.508;13.236;2023-10-31T09:55:56;0.00;;;0.00;;
20826;SDS011;10574;52.508;13.236;2023-10-31T09:58:24;0.00;;;0.00;;
20826;SDS011;10574;52.508;13.236;2023-10-31T10:00:52;0.10;;;0.10;;
20826;SDS011;10574;52.508;13.236;2023-10-31T10:03:20;0.00;;;0.00;;
20826;SDS011;10574;52.508;13.236;2023-10-31T10:05:49;0.40;;;0.23;;
20826;SDS011;10574;52.508;13.236;2023-10-31T10:08:18;0.00;;;0.00;;
20826;SDS011;10574;52.508;13.236;2023-10-31T10:10:46;1.27;;;0.27;;
20826;SDS011;10574;52.508;13.236;2023-10-31T10:13:17;0.00;;;0.00;;
20826;SDS011;10574;52.508;13.236;2023-10-31T10:15:46;0.10;;;0.10;;
20826;SDS011;10574;52.508;13.236;2023-10-31T10:18:24;0.13;;;0.13;;
20826;SDS011;10574;52.508;13.236;2023-10-31T10:20:54;0.10;;;0.10;;
20826;SDS011;10574;52.508;13.236;2023-10-31T10:23:24;0.20;;;0.10;;
20826;SDS011;10574;52.508;13.236;2023-10-31T10:25:53;0.10;;;0.10;;
20826;SDS011;10574;52.508;13.236;2023-10-31T10:28:21;0.10;;;0.10;;
20826;SDS011;10574;52.508;13.236;2023-10-31T10:30:51;0.07;;;0.07;;
20826;SDS011;10574;52.508;13.236;2023-10-31T10:33:20;1.23;;;0.40;;
20826;SDS011;10574;52.508;13.236;2023-10-31T10:35:48;7.60;;;0.40;;
20826;SDS011;10574;52.508;13.236;2023-10-31T10:38:17;0.03;;;0.03;;
20826;SDS011;10574;52.508;13.236;2023-10-31T10:40:47;0.07;;;0.07;;
20826;SDS011;10574;52.508;13.236;2023-10-31T10:45:55;0.10;;;0.10;;
20826;SDS011;10574;52.508;13.236;2023-10-31T10:48:25;0.17;;;0.13;;
20826;SDS011;10574;52.508;13.236;2023-10-31T10:51:00;0.10;;;0.10;;
20826;SDS011;10574;52.508;13.236;2023-10-31T10:53:34;0.10;;;0.10;;
20826;SDS011;10574;52.508;13.236;2023-10-31T10:56:09;0.23;;;0.20;;
20826;SDS011;10574;52.508;13.236;2023-10-31T10:58:48;0.67;;;0.20;;
20826;SDS011;10574;52.508;13.236;2023-10-31T11:01:24;0.40;;;0.10;;
20826;SDS011;10574;52.508;13.236;2023-10-31T11:03:55;0.50;;;0.40;;
20826;SDS011;10574;52.508;13.236;2023-10-31T11:06:23;1.30;;;0.53;;
20826;SDS011;10574;52.508;13.236;2023-10-31T11:08:52;0.20;;;0.20;;
20826;SDS011;10574;52.508;13.236;2023-10-31T11:11:22;0.00;;;0.00;;
20826;SDS011;10574;52.508;13.236;2023-10-31T11:13:50;0.20;;;0.20;;
20826;SDS011;10574;52.508;13.236;2023-10-31T11:16:28;1.60;;;0.50;;
20826;SDS011;10574;52.508;13.236;2023-10-31T11:18:52;0.10;;;0.10;;
20826;SDS011;10574;52.508;13.236;2023-10-31T11:21:22;0.23;;;0.13;;
20826;SDS011;10574;52.508;13.236;2023-10-31T11:23:59;0.50;;;0.50;;
20826;SDS011;10574;52.508;13.236;2023-10-31T11:26:29;0.20;;;0.10;;
20826;SDS011;10574;52.508;13.236;2023-10-31T11:29:04;2.20;;;0.30;;
20826;SDS011;10574;52.508;13.236;2023-10-31T11:31:32;0.73;;;0.37;;
20826;SDS011;10574;52.508;13.236;2023-10-31T11:34:03;0.20;;;0.20;;
20826;SDS011;10574;52.508;13.236;2023-10-31T11:36:32;0.13;;;0.13;;
20826;SDS011;10574;52.508;13.236;2023-10-31T11:39:21;1.80;;;0.30;;
20826;SDS011;10574;52.508;13.236;2023-10-31T11:41:48;0.20;;;0.20;;
20826;SDS011;10574;52.508;13.236;2023-10-31T11:44:16;0.10;;;0.10;;
20826;SDS011;10574;52.508;13.236;2023-10-31T11:46:44;0.47;;;0.20;;
20826;SDS011;10574;52.508;13.236;2023-10-31T11:49:13;0.47;;;0.40;;
20826;SDS011;10574;52.508;13.236;2023-10-31T11:51:43;2.70;;;0.20;;
20826;SDS011;10574;52.508;13.236;2023-10-31T11:54:13;0.03;;;0.03;;
20826;SDS011;10574;52.508;13.236;2023-10-31T11:56:42;0.37;;;0.37;;
20826;SDS011;10574;52.508;13.236;2023-10-31T11:59:13;0.10;;;0.10;;
20826;SDS011;10574;52.508;13.236;2023-10-31T12:01:44;0.17;;;0.17;;
20826;SDS011;10574;52.508;13.236;2023-10-31T12:04:21;0.20;;;0.20;;
20826;SDS011;10574;52.508;13.236;2023-10-31T12:06:59;0.00;;;0.00;;
20826;SDS011;10574;52.508;13.236;2023-10-31T12:09:26;1.03;;;0.60;;
20826;SDS011;10574;52.508;13.236;2023-10-31T12:11:53;0.00;;;0.00;;
20826;SDS011;10574;52.508;13.236;2023-10-31T12:14:21;0.00;;;0.00;;
20826;SDS011;10574;52.508;13.236;2023-10-31T12:16:49;3.17;;;0.57;;
20826;SDS011;10574;52.508;13.236;2023-10-31T12:19:16;0.00;;;0.00;;
20826;SDS011;10574;52.508;13.236;2023-10-31T12:21:47;0.43;;;0.27;;
20826;SDS011;10574;52.508;13.236;2023-10-31T12:24:16;0.00;;;0.00;;
20826;SDS011;10574;52.508;13.236;2023-10-31T12:26:45;0.10;;;0.10;;
20826;SDS011;10574;52.508;13.236;2023-10-31T12:29:13;0.10;;;0.10;;
20826;SDS011;10574;52.508;13.236;2023-10-31T12:31:46;0.00;;;0.00;;
20826;SDS011;10574;52.508;13.236;2023-10-31T12:34:15;0.00;;;0.00;;
20826;SDS011;10574;52.508;13.236;2023-10-31T12:36:44;0.10;;;0.10;;
20826;SDS011;10574;52.508;13.236;2023-10-31T12:39:13;0.07;;;0.07;;
20826;SDS011;10574;52.508;13.236;2023-10-31T12:41:43;0.00;;;0.00;;
20826;SDS011;10574;52.508;13.236;2023-10-31T12:44:10;0.00;;;0.00;;
20826;SDS011;10574;52.508;13.236;2023-10-31T12:46:41;0.00;;;0.00;;
20826;SDS011;10574;52.508;13.236;2023-10-31T12:49:12;0.20;;;0.20;;
20826;SDS011;10574;52.508;13.236;2023-10-31T12:51:55;0.00;;;0.00;;
20826;SDS011;10574;52.508;13.236;2023-10-31T12:54:33;0.07;;;0.07;;
20826;SDS011;10574;52.508;13.236;2023-10-31T12:57:02;0.00;;;0.00;;
20826;SDS011;10574;52.508;13.236;2023-10-31T12:59:32;0.10;;;0.10;;
20826;SDS011;10574;52.508;13.236;2023-10-31T13:02:02;0.00;;;0.00;;
20826;SDS011;10574;52.508;13.236;2023-10-31T13:04:31;2.00;;;0.30;;
20826;SDS011;10574;52.508;13.236;2023-10-31T13:07:03;0.10;;;0.10;;
20826;SDS011;10574;52.508;13.236;2023-10-31T13:09:32;0.00;;;0.00;;
20826;SDS011;10574;52.508;13.236;2023-10-31T13:12:02;0.00;;;0.00;;
20826;SDS011;10574;52.508;13.236;2023-10-31T13:14:31;0.00;;;0.00;;
20826;SDS011;10574;52.508;13.236;2023-10-31T13:16:59;0.27;;;0.27;;
20826;SDS011;10574;52.508;13.236;2023-10-31T13:19:28;0.00;;;0.00;;
20826;SDS011;10574;52.508;13.236;2023-10-31T13:21:56;0.00;;;0.00;;
20826;SDS011;10574;52.508;13.236;2023-10-31T13:24:23;0.20;;;0.20;;
20826;SDS011;10574;52.508;13.236;2023-10-31T13:26:51;0.00;;;0.00;;
20826;SDS011;10574;52.508;13.236;2023-10-31T13:29:19;0.00;;;0.00;;
20826;SDS011;10574;52.508;13.236;2023-10-31T13:31:47;0.17;;;0.17;;
20826;SDS011;10574;52.508;13.236;2023-10-31T13:34:15;0.00;;;0.00;;
20826;SDS011;10574;52.508;13.236;2023-10-31T13:36:42;0.10;;;0.10;;
20826;SDS011;10574;52.508;13.236;2023-10-31T13:39:10;0.00;;;0.00;;
20826;SDS011;10574;52.508;13.236;2023-10-31T13:41:38;0.10;;;0.10;;
20826;SDS011;10574;52.508;13.236;2023-10-31T13:44:06;0.00;;;0.00;;
20826;SDS011;10574;52.508;13.236;2023-10-31T13:46:33;0.00;;;0.00;;
20826;SDS011;10574;52.508;13.236;2023-10-31T13:49:01;0.00;;;0.00;;
20826;SDS011;10574;52.508;13.236;2023-10-31T13:51:29;0.00;;;0.00;;
20826;SDS011;10574;52.508;13.236;2023-10-31T13:53:57;0.77;;;0.67;;
20826;SDS011;10574;52.508;13.236;2023-10-31T13:56:24;0.00;;;0.00;;
20826;SDS011;10574;52.508;13.236;2023-10-31T13:58:52;0.00;;;0.00;;
20826;SDS011;10574;52.508;13.236;2023-10-31T14:01:19;0.13;;;0.13;;
20826;SDS011;10574;52.508;13.236;2023-10-31T14:03:49;0.53;;;0.43;;
20826;SDS011;10574;52.508;13.236;2023-10-31T14:06:17;0.03;;;0.03;;
20826;SDS011;10574;52.508;13.236;2023-10-31T14:08:45;0.00;;;0.00;;
20826;SDS011;10574;52.508;13.236;2023-10-31T14:11:13;0.00;;;0.00;;
20826;SDS011;10574;52.508;13.236;2023-10-31T14:13:41;0.10;;;0.10;;
20826;SDS011;10574;52.508;13.236;2023-10-31T14:16:10;0.00;;;0.00;;
20826;SDS011;10574;52.508;13.236;2023-10-31T14:18:38;0.00;;;0.00;;
20826;SDS011;10574;52.508;13.236;2023-10-31T14:21:06;0.00;;;0.00;;
20826;SDS011;10574;52.508;13.236;2023-10-31T14:23:34;0.07;;;0.07;;
20826;SDS011;10574;52.508;13.236;2023-10-31T14:26:02;0.33;;;0.13;;
20826;SDS011;10574;52.508;13.236;2023-10-31T14:28:30;0.00;;;0.00;;
20826;SDS011;10574;52.508;13.236;2023-10-31T14:30:58;0.40;;;0.40;;
20826;SDS011;10574;52.508;13.236;2023-10-31T14:33:26;0.57;;;0.40;;
20826;SDS011;10574;52.508;13.236;2023-10-31T14:35:55;0.00;;;0.00;;
20826;SDS011;10574;52.508;13.236;2023-10-31T14:38:23;0.00;;;0.00;;
20826;SDS011;10574;52.508;13.236;2023-10-31T14:40:50;0.00;;;0.00;;
20826;SDS011;10574;52.508;13.236;2023-10-31T14:43:18;0.00;;;0.00;;